Time;durP1;ratioP1;P1;durP2;ratioP2;P2;SDS_P1;SDS_P2;PMS_P1;PMS_P2;Temp;Humidity;BMP_temperature;BMP_pressure;BME280_temperature;BME280_humidity;BME280_pressure;Samples;Min_cycle;Max_cycle;Signal;HPM_P1;HPM_P2
2022/08/17 00:02:16;;;;;;;3.30;3.10;;;28.00;71.90;;;;;;5053193;28;20527;-87
2022/08/17 00:04:44;;;;;;;3.30;3.10;;;28.00;71.90;;;;;;5053649;28;20441;-87
2022/08/17 00:07:11;;;;;;;3.00;2.90;;;28.00;71.90;;;;;;5053387;28;20440;-87
2022/08/17 00:09:38;;;;;;;2.77;2.67;;;28.00;71.90;;;;;;5053421;28;20565;-87
2022/08/17 00:12:07;;;;;;;2.73;2.63;;;28.00;71.90;;;;;;5053398;28;20473;-87
2022/08/17 00:14:35;;;;;;;2.80;2.70;;;28.00;71.90;;;;;;5053549;28;20473;-87
2022/08/17 00:17:03;;;;;;;3.03;2.90;;;28.00;71.90;;;;;;5054460;28;20540;-87
2022/08/17 00:19:31;;;;;;;3.20;3.10;;;28.00;72.00;;;;;;5053628;28;20785;-86
2022/08/17 00:21:59;;;;;;;3.70;3.40;;;28.00;71.90;;;;;;5053136;28;21043;-87
2022/08/17 00:24:28;;;;;;;3.20;3.00;;;28.00;72.00;;;;;;5053531;28;20941;-87
2022/08/17 00:26:54;;;;;;;3.03;2.93;;;28.00;72.00;;;;;;5053309;28;20453;-86
2022/08/17 00:29:23;;;;;;;2.80;2.60;;;28.00;71.90;;;;;;5053612;28;20452;-86
2022/08/17 00:31:50;;;;;;;3.10;2.87;;;28.00;71.90;;;;;;5055618;28;20442;-86
2022/08/17 00:34:18;;;;;;;3.10;3.00;;;28.00;72.00;;;;;;5057337;28;20831;-86
2022/08/17 00:36:44;;;;;;;2.87;2.77;;;28.00;72.00;;;;;;5057164;28;20447;-87
2022/08/17 00:39:11;;;;;;;2.97;2.83;;;28.00;72.00;;;;;;5057350;28;20474;-86
2022/08/17 00:41:38;;;;;;;3.27;3.07;;;28.00;72.00;;;;;;5056974;28;20489;-87
2022/08/17 00:44:08;;;;;;;3.40;3.20;;;28.00;72.00;;;;;;5057227;28;20438;-87
2022/08/17 00:46:43;;;;;;;3.07;2.93;;;28.00;72.00;;;;;;5056911;28;20444;-85
2022/08/17 00:49:11;;;;;;;2.90;2.80;;;28.00;72.00;;;;;;5057151;28;20468;-85
2022/08/17 00:51:43;;;;;;;3.13;3.03;;;28.00;72.10;;;;;;5057184;28;20437;-86
2022/08/17 00:54:13;;;;;;;3.23;3.03;;;28.00;72.10;;;;;;5057080;28;20866;-86
2022/08/17 00:56:46;;;;;;;3.00;2.90;;;28.00;72.10;;;;;;5057670;28;20488;-86
2022/08/17 00:59:18;;;;;;;3.40;3.20;;;28.00;72.20;;;;;;5057038;28;20438;-86
2022/08/17 01:01:49;;;;;;;3.30;3.20;;;28.00;72.20;;;;;;5056933;28;20532;-86
2022/08/17 01:04:18;;;;;;;2.93;2.83;;;28.00;72.20;;;;;;5056971;28;20861;-87
2022/08/17 01:06:48;;;;;;;3.20;3.00;;;28.00;72.20;;;;;;5056772;28;20499;-87
2022/08/17 01:09:15;;;;;;;3.07;2.93;;;28.00;72.30;;;;;;5056908;28;20507;-86
2022/08/17 01:11:43;;;;;;;3.07;2.97;;;28.00;72.20;;;;;;5056755;28;20527;-87
2022/08/17 01:14:10;;;;;;;2.93;2.83;;;28.00;72.20;;;;;;5056765;28;20532;-86
2022/08/17 01:16:38;;;;;;;3.03;2.93;;;28.00;72.30;;;;;;5056524;28;20524;-87
2022/08/17 01:19:23;;;;;;;3.00;2.90;;;28.00;72.20;;;;;;5056288;28;20437;-86
2022/08/17 01:21:54;;;;;;;3.47;3.27;;;28.00;72.20;;;;;;5056424;28;20800;-87
2022/08/17 01:24:22;;;;;;;2.53;2.43;;;28.00;72.20;;;;;;5056489;28;20465;-86
2022/08/17 01:26:49;;;;;;;3.13;3.03;;;28.00;73.10;;;;;;5056485;28;20544;-87
2022/08/17 01:29:16;;;;;;;3.23;3.03;;;28.00;72.20;;;;;;5056205;28;20477;-87
2022/08/17 01:31:47;;;;;;;2.97;2.87;;;28.00;72.20;;;;;;5056165;28;20577;-87
2022/08/17 01:34:16;;;;;;;2.90;2.80;;;28.00;72.30;;;;;;5056317;28;20537;-87
2022/08/17 01:36:46;;;;;;;3.17;3.07;;;28.00;72.20;;;;;;5055977;28;20473;-87
2022/08/17 01:39:20;;;;;;;3.10;3.00;;;28.00;72.20;;;;;;5055874;28;20477;-87
2022/08/17 01:41:50;;;;;;;2.87;2.77;;;28.00;72.20;;;;;;5055876;28;20437;-87
2022/08/17 01:44:17;;;;;;;2.57;2.47;;;28.00;72.20;;;;;;5055082;28;20436;-86
2022/08/17 01:46:44;;;;;;;3.00;2.80;;;28.00;72.20;;;;;;5055856;28;20441;-87
2022/08/17 01:49:12;;;;;;;3.17;2.97;;;28.00;72.20;;;;;;5056036;28;21016;-87
2022/08/17 01:51:39;;;;;;;2.73;2.63;;;28.00;72.20;;;;;;5055959;28;20508;-87
2022/08/17 01:54:11;;;;;;;3.27;3.17;;;28.00;72.10;;;;;;5055878;28;20476;-87
2022/08/17 01:56:41;;;;;;;2.70;2.60;;;28.00;72.10;;;;;;5055719;28;20925;-87
2022/08/17 01:59:09;;;;;;;3.30;3.20;;;28.00;72.10;;;;;;5055778;28;20541;-87
2022/08/17 02:01:36;;;;;;;3.50;3.30;;;28.00;72.10;;;;;;5055449;28;20486;-87
2022/08/17 02:04:05;;;;;;;3.10;3.00;;;28.00;72.10;;;;;;5055720;28;20878;-87
2022/08/17 02:06:34;;;;;;;3.40;3.20;;;28.00;72.10;;;;;;5055466;28;21004;-87
2022/08/17 02:09:02;;;;;;;2.73;2.63;;;28.00;72.10;;;;;;5055584;28;20966;-87
2022/08/17 02:11:28;;;;;;;3.60;3.40;;;28.00;72.10;;;;;;5055260;28;20481;-87
2022/08/17 02:13:55;;;;;;;3.07;2.97;;;28.00;72.10;;;;;;5055230;28;20948;-87
2022/08/17 02:16:24;;;;;;;3.37;3.27;;;28.00;72.10;;;;;;5055717;28;20454;-87
2022/08/17 02:18:51;;;;;;;3.40;3.20;;;28.00;72.10;;;;;;5055037;28;21400;-87
2022/08/17 02:21:18;;;;;;;3.40;3.20;;;28.00;72.10;;;;;;5055322;28;20460;-87
2022/08/17 02:23:48;;;;;;;3.37;3.17;;;28.00;72.10;;;;;;5055415;28;20442;-87
2022/08/17 02:26:15;;;;;;;3.00;2.90;;;28.00;72.10;;;;;;5055676;28;20503;-87
2022/08/17 02:28:42;;;;;;;3.40;3.20;;;28.00;72.10;;;;;;5055452;28;20882;-87
2022/08/17 02:31:11;;;;;;;2.80;2.70;;;28.00;72.10;;;;;;5055129;28;20527;-87
2022/08/17 02:33:41;;;;;;;3.03;2.93;;;28.00;72.00;;;;;;5055237;28;20492;-87
2022/08/17 02:36:08;;;;;;;2.67;2.57;;;28.00;72.10;;;;;;5055176;28;20434;-87
2022/08/17 02:38:35;;;;;;;3.13;3.03;;;28.00;72.00;;;;;;5054880;28;20947;-90
2022/08/17 02:41:03;;;;;;;3.17;2.97;;;28.00;72.00;;;;;;5055083;28;20466;-87
2022/08/17 02:43:30;;;;;;;3.40;3.20;;;28.00;72.00;;;;;;5055064;28;20532;-87
2022/08/17 02:45:56;;;;;;;3.10;3.00;;;28.00;72.00;;;;;;5054658;28;20473;-88
2022/08/17 02:48:23;;;;;;;3.40;3.20;;;28.00;72.00;;;;;;5054569;28;20497;-87
2022/08/17 02:50:52;;;;;;;3.10;3.00;;;27.90;71.90;;;;;;5054663;28;20524;-87
2022/08/17 02:53:18;;;;;;;3.03;2.93;;;28.00;72.00;;;;;;5054690;28;20979;-87
2022/08/17 02:55:45;;;;;;;3.30;3.10;;;27.90;71.90;;;;;;5054807;28;20469;-87
2022/08/17 02:58:13;;;;;;;3.00;2.90;;;27.90;71.90;;;;;;5054497;28;20828;-87
2022/08/17 03:00:42;;;;;;;3.50;3.30;;;27.90;71.90;;;;;;5054591;28;20452;-87
2022/08/17 03:03:12;;;;;;;3.27;3.07;;;28.00;72.00;;;;;;5054321;28;20964;-86
2022/08/17 03:05:39;;;;;;;2.90;2.80;;;27.90;72.00;;;;;;5054331;28;20442;-86
2022/08/17 03:08:08;;;;;;;2.70;2.60;;;28.00;72.10;;;;;;5054531;28;20469;-87
2022/08/17 03:10:35;;;;;;;2.80;2.70;;;27.90;72.00;;;;;;5054238;28;20572;-87
2022/08/17 03:13:02;;;;;;;3.20;3.00;;;27.90;72.00;;;;;;5054322;28;20516;-86
2022/08/17 03:15:32;;;;;;;2.60;2.50;;;27.90;72.00;;;;;;5054296;28;20796;-86
2022/08/17 03:18:00;;;;;;;3.23;3.13;;;27.90;72.80;;;;;;5054505;28;20468;-86
2022/08/17 03:20:29;;;;;;;3.00;2.90;;;27.90;72.00;;;;;;5053922;28;20533;-86
2022/08/17 03:22:57;;;;;;;2.70;2.60;;;28.00;72.00;;;;;;5054049;28;20533;-86
2022/08/17 03:25:27;;;;;;;3.10;3.00;;;27.90;71.90;;;;;;5054176;28;20481;-86
2022/08/17 03:27:55;;;;;;;3.00;2.80;;;27.90;71.90;;;;;;5046893;28;20947;-86
2022/08/17 03:30:23;;;;;;;3.13;2.93;;;27.90;72.00;;;;;;5070905;28;20491;-86
2022/08/17 03:32:52;;;;;;;3.00;2.90;;;28.00;72.10;;;;;;5071139;28;20486;-87
2022/08/17 03:35:21;;;;;;;2.90;2.80;;;27.90;72.00;;;;;;5070060;28;20441;-87
2022/08/17 03:37:48;;;;;;;3.00;2.90;;;27.90;71.90;;;;;;5055846;28;20444;-86
2022/08/17 03:40:16;;;;;;;3.03;2.93;;;27.90;71.90;;;;;;5055904;28;20511;-86
2022/08/17 03:42:44;;;;;;;3.10;3.00;;;27.90;71.90;;;;;;5054464;28;20507;-87
2022/08/17 03:45:14;;;;;;;3.50;3.30;;;27.90;71.90;;;;;;5053779;28;20445;-87
2022/08/17 03:58:57;;;;;;;3.43;3.23;;;27.90;72.10;;;;;;4973181;28;20501;-86
2022/08/17 04:01:25;;;;;;;3.00;2.90;;;27.90;72.10;;;;;;5018160;28;20448;-86
2022/08/17 04:03:52;;;;;;;2.97;2.87;;;27.90;72.20;;;;;;5053561;28;20979;-86
2022/08/17 04:06:19;;;;;;;3.37;3.17;;;27.90;72.10;;;;;;5053346;28;20631;-86
2022/08/17 04:08:46;;;;;;;3.20;3.10;;;27.90;72.10;;;;;;5053431;28;20446;-86
2022/08/17 04:11:13;;;;;;;3.10;2.90;;;27.90;72.10;;;;;;5053435;28;20572;-86
2022/08/17 04:13:40;;;;;;;3.00;2.90;;;27.90;72.10;;;;;;5053368;28;20468;-86
2022/08/17 04:16:08;;;;;;;3.00;2.90;;;27.90;72.20;;;;;;5053659;28;20465;-86
2022/08/17 04:18:35;;;;;;;3.10;3.00;;;27.90;72.20;;;;;;5053232;28;21006;-86
2022/08/17 04:21:02;;;;;;;2.63;2.53;;;27.90;72.20;;;;;;5053333;28;21021;-89
2022/08/17 04:23:32;;;;;;;3.30;3.10;;;27.90;72.10;;;;;;5053578;28;20440;-86
2022/08/17 04:25:59;;;;;;;3.20;3.00;;;27.90;72.10;;;;;;5053534;28;20433;-87
2022/08/17 04:28:26;;;;;;;3.20;3.00;;;27.90;72.10;;;;;;5053273;28;20498;-86
2022/08/17 04:30:53;;;;;;;2.73;2.63;;;27.90;72.20;;;;;;5052907;28;20988;-87
2022/08/17 04:33:24;;;;;;;3.20;3.10;;;27.90;72.20;;;;;;5053468;28;20549;-85
2022/08/17 04:35:53;;;;;;;3.20;3.10;;;27.90;72.10;;;;;;5053862;28;20516;-86
2022/08/17 04:38:23;;;;;;;3.30;3.20;;;27.90;72.20;;;;;;5053285;28;20438;-85
2022/08/17 04:43:36;;;;;;;3.90;3.70;;;27.90;73.10;;;;;;5053226;28;20468;-89
2022/08/17 04:46:05;;;;;;;2.90;2.80;;;27.90;72.30;;;;;;5052891;28;20980;-86
2022/08/17 04:48:36;;;;;;;3.30;3.13;;;27.90;72.20;;;;;;5052910;28;21032;-86
2022/08/17 04:51:05;;;;;;;2.87;2.77;;;27.90;72.20;;;;;;5053054;28;21055;-87
2022/08/17 04:53:33;;;;;;;3.70;3.50;;;27.90;72.30;;;;;;5053275;28;20450;-86
2022/08/17 04:55:59;;;;;;;3.20;3.10;;;27.90;72.20;;;;;;5052953;28;20541;-86
2022/08/17 04:58:27;;;;;;;3.00;2.90;;;27.90;72.30;;;;;;5053095;28;20481;-86
2022/08/17 05:00:54;;;;;;;2.97;2.87;;;27.90;72.30;;;;;;5053750;28;20448;-86
2022/08/17 05:03:21;;;;;;;3.10;3.00;;;27.90;72.40;;;;;;5052781;28;20497;-86
2022/08/17 05:05:49;;;;;;;2.87;2.77;;;27.90;72.40;;;;;;5052982;28;20860;-86
2022/08/17 05:08:17;;;;;;;3.10;3.00;;;27.90;72.30;;;;;;5053548;28;20987;-85
2022/08/17 05:10:45;;;;;;;3.07;2.97;;;27.90;72.40;;;;;;5054196;28;20528;-85
2022/08/17 05:13:15;;;;;;;3.00;2.80;;;27.90;72.40;;;;;;5053867;28;20442;-87
2022/08/17 05:15:43;;;;;;;2.90;2.80;;;27.90;72.50;;;;;;5054364;28;20782;-87
2022/08/17 05:18:10;;;;;;;3.07;2.97;;;27.90;72.50;;;;;;5054312;28;21000;-90
2022/08/17 05:20:39;;;;;;;3.63;3.43;;;27.90;72.60;;;;;;5057704;28;20433;-87
2022/08/17 05:23:10;;;;;;;3.50;3.40;;;27.90;72.70;;;;;;5058255;28;20521;-87
2022/08/17 05:25:40;;;;;;;3.30;3.10;;;27.90;72.70;;;;;;5056661;28;20426;-87
2022/08/17 05:28:09;;;;;;;3.90;3.70;;;27.90;72.70;;;;;;5056487;28;20517;-87
2022/08/17 05:30:37;;;;;;;3.40;3.30;;;27.90;72.70;;;;;;5056630;28;20800;-87
2022/08/17 05:33:06;;;;;;;2.87;2.77;;;27.90;72.70;;;;;;5056156;28;20585;-87
2022/08/17 05:35:36;;;;;;;3.03;2.93;;;27.90;72.70;;;;;;5057199;28;20450;-86
2022/08/17 05:38:03;;;;;;;3.53;3.33;;;27.90;72.70;;;;;;5056117;28;20480;-88
2022/08/17 05:40:32;;;;;;;3.03;2.93;;;27.90;72.70;;;;;;5056095;28;20441;-86
2022/08/17 05:43:07;;;;;;;3.20;3.10;;;27.90;72.80;;;;;;5056056;28;20485;-86
2022/08/17 05:45:36;;;;;;;3.53;3.40;;;27.90;72.70;;;;;;5055893;28;20951;-87
2022/08/17 05:48:03;;;;;;;3.30;3.17;;;27.90;72.80;;;;;;5055660;28;20497;-86
2022/08/17 05:50:48;;;;;;;3.23;3.13;;;27.90;72.80;;;;;;5056100;28;20473;-87
2022/08/17 05:53:22;;;;;;;3.40;3.30;;;27.90;72.80;;;;;;5056030;28;20448;-86
2022/08/17 05:56:01;;;;;;;3.73;3.50;;;27.90;72.80;;;;;;5055899;28;20449;-86
2022/08/17 05:58:35;;;;;;;3.37;3.17;;;27.80;72.70;;;;;;5055626;28;20562;-86
2022/08/17 06:01:08;;;;;;;3.27;3.17;;;27.90;72.80;;;;;;5063061;28;20440;-88
2022/08/17 06:03:47;;;;;;;3.33;3.13;;;27.90;72.70;;;;;;5060113;28;20851;-85
2022/08/17 06:06:30;;;;;;;2.37;2.27;;;27.90;72.80;;;;;;5055608;28;20438;-88
2022/08/17 06:09:11;;;;;;;3.27;3.10;;;27.90;72.80;;;;;;5073816;28;20847;-86
2022/08/17 06:11:46;;;;;;;2.60;2.50;;;27.90;72.90;;;;;;5075244;28;20516;-87
2022/08/17 06:14:31;;;;;;;2.93;2.83;;;27.90;72.90;;;;;;5075548;28;20997;-87
2022/08/17 06:17:02;;;;;;;2.43;2.33;;;27.90;72.70;;;;;;5075506;28;20678;-88
2022/08/17 06:19:38;;;;;;;3.60;3.10;;;27.90;72.60;;;;;;5075609;28;20883;-88
2022/08/17 06:22:06;;;;;;;3.20;3.00;;;27.90;72.70;;;;;;5075260;28;20447;-85
2022/08/17 06:24:37;;;;;;;3.40;3.17;;;27.90;72.80;;;;;;5074254;28;20462;-85
2022/08/17 06:27:12;;;;;;;3.77;3.47;;;27.90;72.80;;;;;;5074845;28;20437;-84
2022/08/17 06:29:49;;;;;;;4.77;4.40;;;27.90;73.00;;;;;;5074160;28;20463;-84
2022/08/17 06:32:16;;;;;;;6.83;5.50;;;27.80;74.30;;;;;;5062389;28;20879;-84
2022/08/17 06:34:44;;;;;;;5.57;5.07;;;27.80;73.80;;;;;;5054153;28;20541;-84
2022/08/17 06:37:26;;;;;;;5.57;4.97;;;27.80;74.00;;;;;;5055971;28;20533;-84
2022/08/17 06:40:02;;;;;;;7.93;4.23;;;27.80;73.90;;;;;;5074854;28;20868;-95
2022/08/17 06:42:39;;;;;;;4.60;4.03;;;27.80;74.00;;;;;;5075869;28;20499;-93
2022/08/17 06:45:12;;;;;;;5.27;4.47;;;27.80;73.70;;;;;;5084003;28;20433;-96
2022/08/17 06:47:50;;;;;;;6.30;4.10;;;27.80;74.00;;;;;;5093301;28;20472;-96
2022/08/17 06:50:22;;;;;;;5.27;4.00;;;27.80;74.10;;;;;;5085460;28;20465;-96
2022/08/17 06:52:59;;;;;;;6.73;4.07;;;27.80;74.20;;;;;;5080240;28;20468;-96
2022/08/17 06:55:33;;;;;;;8.13;4.00;;;27.80;74.20;;;;;;5078518;28;20464;-96
2022/08/17 06:58:05;;;;;;;6.90;4.73;;;27.80;74.20;;;;;;5077762;28;20491;-96
2022/08/17 07:00:39;;;;;;;4.83;4.20;;;27.80;74.30;;;;;;5077468;28;20437;-96
2022/08/17 07:03:17;;;;;;;4.10;3.70;;;27.80;74.20;;;;;;5076897;28;20469;-96
2022/08/17 07:05:49;;;;;;;4.50;4.10;;;27.80;74.20;;;;;;5076642;28;20448;-95
2022/08/17 07:08:23;;;;;;;5.30;3.37;;;27.80;74.20;;;;;;5076302;28;20445;-95
2022/08/17 07:10:54;;;;;;;4.37;3.90;;;27.80;74.10;;;;;;5050246;28;20465;-95
2022/08/17 07:13:33;;;;;;;4.30;3.90;;;27.80;74.00;;;;;;5075913;28;20480;-96
2022/08/17 07:16:17;;;;;;;4.57;3.90;;;27.80;74.00;;;;;;5076177;28;20512;-96
2022/08/17 07:18:44;;;;;;;4.10;3.80;;;27.90;73.90;;;;;;5076410;28;20445;-96
2022/08/17 07:21:25;;;;;;;4.00;3.80;;;27.90;73.90;;;;;;5075758;28;20445;-95
2022/08/17 07:24:06;;;;;;;3.90;3.60;;;27.90;73.90;;;;;;5076057;28;20444;-96
2022/08/17 07:26:33;;;;;;;4.00;3.70;;;27.80;73.80;;;;;;5072350;28;20451;-96
2022/08/17 07:29:02;;;;;;;4.63;3.60;;;27.80;73.90;;;;;;5075307;28;20499;-95
2022/08/17 07:31:32;;;;;;;4.80;4.30;;;27.80;73.90;;;;;;5075441;28;20514;-95
2022/08/17 07:34:09;;;;;;;3.80;3.33;;;27.80;73.80;;;;;;5076109;28;20477;-94
2022/08/17 07:36:36;;;;;;;4.60;3.83;;;27.80;73.80;;;;;;5074374;28;20433;-83
2022/08/17 07:39:04;;;;;;;5.97;3.60;;;27.90;73.80;;;;;;5073744;28;21015;-85
2022/08/17 07:41:38;;;;;;;4.20;3.80;;;27.90;73.80;;;;;;5074560;28;20524;-91
